sensor_id;sensor_type;location;lat;lon;timestamp;P1;durP1;ratioP1;P2;durP2;ratioP2
297;SDS011;133;49.626;9.680;2023-12-20T00:00:52;5.60;;;4.63;;
297;SDS011;133;49.626;9.680;2023-12-20T00:03:17;5.97;;;5.00;;
297;SDS011;133;49.626;9.680;2023-12-20T00:05:43;4.47;;;4.17;;
297;SDS011;133;49.626;9.680;2023-12-20T00:08:09;4.43;;;3.80;;
297;SDS011;133;49.626;9.680;2023-12-20T00:10:35;4.00;;;3.77;;
297;SDS011;133;49.626;9.680;2023-12-20T00:13:00;4.47;;;4.13;;
297;SDS011;133;49.626;9.680;2023-12-20T00:15:26;3.83;;;3.63;;
297;SDS011;133;49.626;9.680;2023-12-20T00:17:51;4.03;;;3.80;;
297;SDS011;133;49.626;9.680;2023-12-20T00:20:17;3.70;;;3.47;;
297;SDS011;133;49.626;9.680;2023-12-20T00:22:43;3.50;;;3.30;;
297;SDS011;133;49.626;9.680;2023-12-20T00:25:08;4.50;;;3.70;;
297;SDS011;133;49.626;9.680;2023-12-20T00:27:34;3.60;;;3.47;;
297;SDS011;133;49.626;9.680;2023-12-20T00:29:59;3.53;;;3.33;;
297;SDS011;133;49.626;9.680;2023-12-20T00:32:25;3.60;;;3.40;;
297;SDS011;133;49.626;9.680;2023-12-20T00:34:51;4.40;;;3.33;;
297;SDS011;133;49.626;9.680;2023-12-20T00:37:17;2.90;;;2.70;;
297;SDS011;133;49.626;9.680;2023-12-20T00:39:43;3.20;;;3.00;;
297;SDS011;133;49.626;9.680;2023-12-20T00:42:08;2.80;;;2.60;;
297;SDS011;133;49.626;9.680;2023-12-20T00:44:34;3.00;;;2.80;;
297;SDS011;133;49.626;9.680;2023-12-20T00:47:00;2.90;;;2.70;;
297;SDS011;133;49.626;9.680;2023-12-20T00:49:26;3.20;;;2.90;;
297;SDS011;133;49.626;9.680;2023-12-20T00:51:52;3.20;;;3.00;;
297;SDS011;133;49.626;9.680;2023-12-20T00:54:17;2.57;;;2.37;;
297;SDS011;133;49.626;9.680;2023-12-20T00:56:43;2.60;;;2.40;;
297;SDS011;133;49.626;9.680;2023-12-20T00:59:10;2.60;;;2.40;;
297;SDS011;133;49.626;9.680;2023-12-20T01:01:35;3.00;;;2.80;;
297;SDS011;133;49.626;9.680;2023-12-20T01:04:01;3.33;;;2.30;;
297;SDS011;133;49.626;9.680;2023-12-20T01:06:27;3.00;;;2.80;;
297;SDS011;133;49.626;9.680;2023-12-20T01:08:53;2.93;;;2.73;;
297;SDS011;133;49.626;9.680;2023-12-20T01:11:18;2.73;;;2.53;;
297;SDS011;133;49.626;9.680;2023-12-20T01:13:44;2.93;;;2.53;;
297;SDS011;133;49.626;9.680;2023-12-20T01:16:11;2.60;;;2.40;;
297;SDS011;133;49.626;9.680;2023-12-20T01:18:37;2.37;;;2.10;;
297;SDS011;133;49.626;9.680;2023-12-20T01:21:03;2.13;;;1.97;;
297;SDS011;133;49.626;9.680;2023-12-20T01:23:29;1.90;;;1.80;;
297;SDS011;133;49.626;9.680;2023-12-20T01:25:55;1.90;;;1.80;;
297;SDS011;133;49.626;9.680;2023-12-20T01:28:21;1.93;;;1.83;;
297;SDS011;133;49.626;9.680;2023-12-20T01:30:47;1.90;;;1.80;;
297;SDS011;133;49.626;9.680;2023-12-20T01:33:13;1.73;;;1.63;;
297;SDS011;133;49.626;9.680;2023-12-20T01:35:39;1.67;;;1.60;;
297;SDS011;133;49.626;9.680;2023-12-20T01:38:04;1.70;;;1.60;;
297;SDS011;133;49.626;9.680;2023-12-20T01:40:30;1.50;;;1.40;;
297;SDS011;133;49.626;9.680;2023-12-20T01:42:59;1.60;;;1.50;;
297;SDS011;133;49.626;9.680;2023-12-20T01:45:27;1.90;;;1.80;;
297;SDS011;133;49.626;9.680;2023-12-20T01:47:54;1.70;;;1.60;;
297;SDS011;133;49.626;9.680;2023-12-20T01:50:21;1.50;;;1.40;;
297;SDS011;133;49.626;9.680;2023-12-20T01:52:47;1.43;;;1.33;;
297;SDS011;133;49.626;9.680;2023-12-20T01:55:13;1.43;;;1.30;;
297;SDS011;133;49.626;9.680;2023-12-20T01:57:43;1.23;;;1.13;;
297;SDS011;133;49.626;9.680;2023-12-20T02:00:10;1.50;;;1.40;;
297;SDS011;133;49.626;9.680;2023-12-20T02:02:39;1.70;;;1.60;;
297;SDS011;133;49.626;9.680;2023-12-20T02:05:05;1.73;;;1.63;;
297;SDS011;133;49.626;9.680;2023-12-20T02:07:31;1.40;;;1.30;;
297;SDS011;133;49.626;9.680;2023-12-20T02:09:58;1.60;;;1.50;;
297;SDS011;133;49.626;9.680;2023-12-20T02:12:23;1.50;;;1.40;;
297;SDS011;133;49.626;9.680;2023-12-20T02:14:49;1.70;;;1.60;;
297;SDS011;133;49.626;9.680;2023-12-20T02:17:15;1.40;;;1.30;;
297;SDS011;133;49.626;9.680;2023-12-20T02:19:41;1.50;;;1.40;;
297;SDS011;133;49.626;9.680;2023-12-20T02:22:10;1.60;;;1.50;;
297;SDS011;133;49.626;9.680;2023-12-20T02:24:36;1.30;;;1.20;;
297;SDS011;133;49.626;9.680;2023-12-20T02:27:02;1.47;;;1.40;;
297;SDS011;133;49.626;9.680;2023-12-20T02:29:29;1.67;;;1.60;;
297;SDS011;133;49.626;9.680;2023-12-20T02:31:56;1.40;;;1.30;;
297;SDS011;133;49.626;9.680;2023-12-20T02:34:22;1.40;;;1.30;;
297;SDS011;133;49.626;9.680;2023-12-20T02:36:48;1.57;;;1.47;;
297;SDS011;133;49.626;9.680;2023-12-20T02:39:14;1.50;;;1.40;;
297;SDS011;133;49.626;9.680;2023-12-20T02:41:40;1.37;;;1.27;;
297;SDS011;133;49.626;9.680;2023-12-20T02:44:06;1.47;;;1.37;;
297;SDS011;133;49.626;9.680;2023-12-20T02:46:31;1.50;;;1.40;;
297;SDS011;133;49.626;9.680;2023-12-20T02:48:57;1.50;;;1.40;;
297;SDS011;133;49.626;9.680;2023-12-20T02:51:23;1.50;;;1.40;;
297;SDS011;133;49.626;9.680;2023-12-20T02:53:48;1.40;;;1.30;;
297;SDS011;133;49.626;9.680;2023-12-20T02:56:14;1.47;;;1.37;;
297;SDS011;133;49.626;9.680;2023-12-20T02:58:39;1.40;;;1.30;;
297;SDS011;133;49.626;9.680;2023-12-20T03:01:05;1.50;;;1.40;;
297;SDS011;133;49.626;9.680;2023-12-20T03:03:31;1.30;;;1.20;;
297;SDS011;133;49.626;9.680;2023-12-20T03:05:57;1.47;;;1.37;;
297;SDS011;133;49.626;9.680;2023-12-20T03:08:23;1.30;;;1.20;;
297;SDS011;133;49.626;9.680;2023-12-20T03:10:48;1.30;;;1.20;;
297;SDS011;133;49.626;9.680;2023-12-20T03:13:14;1.30;;;1.20;;
297;SDS011;133;49.626;9.680;2023-12-20T03:15:40;1.27;;;1.10;;
297;SDS011;133;49.626;9.680;2023-12-20T03:18:05;1.30;;;1.20;;
297;SDS011;133;49.626;9.680;2023-12-20T03:20:31;1.30;;;1.20;;
297;SDS011;133;49.626;9.680;2023-12-20T03:23:00;1.27;;;1.17;;
297;SDS011;133;49.626;9.680;2023-12-20T03:25:26;1.20;;;1.10;;
297;SDS011;133;49.626;9.680;2023-12-20T03:27:52;1.20;;;1.10;;
297;SDS011;133;49.626;9.680;2023-12-20T03:30:17;1.20;;;1.10;;
297;SDS011;133;49.626;9.680;2023-12-20T03:32:44;1.30;;;1.20;;
297;SDS011;133;49.626;9.680;2023-12-20T03:35:10;1.50;;;1.40;;
297;SDS011;133;49.626;9.680;2023-12-20T03:37:36;1.07;;;0.97;;
297;SDS011;133;49.626;9.680;2023-12-20T03:40:02;1.33;;;1.23;;
297;SDS011;133;49.626;9.680;2023-12-20T03:42:28;1.93;;;1.10;;
297;SDS011;133;49.626;9.680;2023-12-20T03:44:53;1.20;;;1.10;;
297;SDS011;133;49.626;9.680;2023-12-20T03:47:19;1.60;;;1.20;;
297;SDS011;133;49.626;9.680;2023-12-20T03:49:46;1.13;;;1.03;;
297;SDS011;133;49.626;9.680;2023-12-20T03:52:11;1.20;;;1.10;;
297;SDS011;133;49.626;9.680;2023-12-20T03:54:37;1.03;;;0.93;;
297;SDS011;133;49.626;9.680;2023-12-20T03:57:04;1.10;;;1.00;;
297;SDS011;133;49.626;9.680;2023-12-20T03:59:34;1.17;;;1.07;;
297;SDS011;133;49.626;9.680;2023-12-20T04:02:02;1.27;;;1.17;;
297;SDS011;133;49.626;9.680;2023-12-20T04:04:28;1.40;;;1.30;;
297;SDS011;133;49.626;9.680;2023-12-20T04:06:54;1.30;;;1.20;;
297;SDS011;133;49.626;9.680;2023-12-20T04:09:19;1.10;;;1.00;;
297;SDS011;133;49.626;9.680;2023-12-20T04:11:45;1.20;;;1.10;;
297;SDS011;133;49.626;9.680;2023-12-20T04:14:12;1.63;;;1.53;;
297;SDS011;133;49.626;9.680;2023-12-20T04:16:37;1.47;;;1.37;;
297;SDS011;133;49.626;9.680;2023-12-20T04:19:04;1.33;;;1.23;;
297;SDS011;133;49.626;9.680;2023-12-20T04:21:29;1.50;;;1.40;;
297;SDS011;133;49.626;9.680;2023-12-20T04:23:55;1.50;;;1.40;;
297;SDS011;133;49.626;9.680;2023-12-20T04:26:21;1.40;;;1.30;;
297;SDS011;133;49.626;9.680;2023-12-20T04:28:47;1.30;;;1.20;;
297;SDS011;133;49.626;9.680;2023-12-20T04:31:12;1.10;;;1.00;;
297;SDS011;133;49.626;9.680;2023-12-20T04:33:38;1.20;;;1.10;;
297;SDS011;133;49.626;9.680;2023-12-20T04:36:04;1.27;;;1.17;;
297;SDS011;133;49.626;9.680;2023-12-20T04:38:29;1.27;;;1.17;;
297;SDS011;133;49.626;9.680;2023-12-20T04:40:55;1.40;;;1.30;;
297;SDS011;133;49.626;9.680;2023-12-20T04:43:21;1.60;;;1.30;;
297;SDS011;133;49.626;9.680;2023-12-20T04:45:47;1.40;;;1.30;;
297;SDS011;133;49.626;9.680;2023-12-20T04:48:12;1.40;;;1.30;;
297;SDS011;133;49.626;9.680;2023-12-20T04:50:38;1.40;;;1.30;;
297;SDS011;133;49.626;9.680;2023-12-20T04:53:03;1.43;;;1.33;;
297;SDS011;133;49.626;9.680;2023-12-20T04:55:29;1.20;;;1.10;;
297;SDS011;133;49.626;9.680;2023-12-20T04:57:55;1.50;;;1.40;;
297;SDS011;133;49.626;9.680;2023-12-20T05:00:21;1.53;;;1.43;;
297;SDS011;133;49.626;9.680;2023-12-20T05:02:47;1.57;;;1.47;;
297;SDS011;133;49.626;9.680;2023-12-20T05:05:13;1.60;;;1.50;;
297;SDS011;133;49.626;9.680;2023-12-20T05:07:40;1.60;;;1.50;;
297;SDS011;133;49.626;9.680;2023-12-20T05:10:06;1.67;;;1.57;;
297;SDS011;133;49.626;9.680;2023-12-20T05:12:33;1.83;;;1.60;;
297;SDS011;133;49.626;9.680;2023-12-20T05:14:58;1.63;;;1.53;;
297;SDS011;133;49.626;9.680;2023-12-20T05:17:25;1.80;;;1.70;;
297;SDS011;133;49.626;9.680;2023-12-20T05:19:51;1.63;;;1.53;;
297;SDS011;133;49.626;9.680;2023-12-20T05:22:17;2.70;;;1.87;;
297;SDS011;133;49.626;9.680;2023-12-20T05:24:44;2.40;;;2.20;;
297;SDS011;133;49.626;9.680;2023-12-20T05:27:10;2.00;;;1.90;;
297;SDS011;133;49.626;9.680;2023-12-20T05:29:36;2.20;;;2.00;;
297;SDS011;133;49.626;9.680;2023-12-20T05:32:02;2.00;;;1.90;;
297;SDS011;133;49.626;9.680;2023-12-20T05:34:29;2.30;;;2.10;;
297;SDS011;133;49.626;9.680;2023-12-20T05:36:55;2.00;;;1.90;;
297;SDS011;133;49.626;9.680;2023-12-20T05:39:21;1.90;;;1.80;;
297;SDS011;133;49.626;9.680;2023-12-20T05:41:47;2.00;;;1.90;;
297;SDS011;133;49.626;9.680;2023-12-20T05:44:12;2.20;;;2.00;;
297;SDS011;133;49.626;9.680;2023-12-20T05:46:38;1.90;;;1.80;;
297;SDS011;133;49.626;9.680;2023-12-20T05:49:05;3.03;;;2.83;;
297;SDS011;133;49.626;9.680;2023-12-20T05:51:30;3.13;;;2.93;;
297;SDS011;133;49.626;9.680;2023-12-20T05:53:56;2.50;;;2.30;;
297;SDS011;133;49.626;9.680;2023-12-20T05:56:22;2.20;;;2.00;;
297;SDS011;133;49.626;9.680;2023-12-20T05:58:47;3.43;;;2.50;;
297;SDS011;133;49.626;9.680;2023-12-20T06:01:14;3.80;;;3.40;;
297;SDS011;133;49.626;9.680;2023-12-20T06:03:41;2.87;;;2.67;;
297;SDS011;133;49.626;9.680;2023-12-20T06:06:09;2.77;;;2.57;;
297;SDS011;133;49.626;9.680;2023-12-20T06:08:35;2.80;;;2.60;;
297;SDS011;133;49.626;9.680;2023-12-20T06:11:01;2.80;;;2.60;;
297;SDS011;133;49.626;9.680;2023-12-20T06:13:27;3.73;;;2.50;;
297;SDS011;133;49.626;9.680;2023-12-20T06:15:54;3.03;;;2.80;;
297;SDS011;133;49.626;9.680;2023-12-20T06:18:21;2.83;;;2.63;;
297;SDS011;133;49.626;9.680;2023-12-20T06:20:46;2.60;;;2.40;;
297;SDS011;133;49.626;9.680;2023-12-20T06:23:12;3.30;;;2.73;;
297;SDS011;133;49.626;9.680;2023-12-20T06:25:38;2.83;;;2.63;;
297;SDS011;133;49.626;9.680;2023-12-20T06:28:03;3.23;;;3.03;;
297;SDS011;133;49.626;9.680;2023-12-20T06:30:30;2.97;;;2.77;;
297;SDS011;133;49.626;9.680;2023-12-20T06:32:57;2.60;;;2.40;;
297;SDS011;133;49.626;9.680;2023-12-20T06:35:23;2.90;;;2.70;;
297;SDS011;133;49.626;9.680;2023-12-20T06:37:49;2.90;;;2.70;;
297;SDS011;133;49.626;9.680;2023-12-20T06:40:14;3.13;;;2.83;;
297;SDS011;133;49.626;9.680;2023-12-20T06:42:41;3.30;;;3.10;;
297;SDS011;133;49.626;9.680;2023-12-20T06:45:07;3.40;;;3.20;;
297;SDS011;133;49.626;9.680;2023-12-20T06:47:33;3.47;;;3.27;;
297;SDS011;133;49.626;9.680;2023-12-20T06:49:58;3.50;;;3.30;;
297;SDS011;133;49.626;9.680;2023-12-20T06:52:24;4.60;;;4.30;;
297;SDS011;133;49.626;9.680;2023-12-20T06:54:50;4.30;;;4.00;;
297;SDS011;133;49.626;9.680;2023-12-20T06:57:15;4.03;;;3.83;;
297;SDS011;133;49.626;9.680;2023-12-20T06:59:41;3.77;;;3.60;;
297;SDS011;133;49.626;9.680;2023-12-20T07:02:08;3.40;;;3.20;;
297;SDS011;133;49.626;9.680;2023-12-20T07:04:34;6.40;;;3.13;;
297;SDS011;133;49.626;9.680;2023-12-20T07:07:03;5.03;;;3.67;;
297;SDS011;133;49.626;9.680;2023-12-20T07:09:30;3.30;;;3.10;;
297;SDS011;133;49.626;9.680;2023-12-20T07:11:56;4.83;;;3.13;;
297;SDS011;133;49.626;9.680;2023-12-20T07:14:21;4.33;;;3.07;;
297;SDS011;133;49.626;9.680;2023-12-20T07:16:47;6.63;;;3.70;;
297;SDS011;133;49.626;9.680;2023-12-20T07:19:13;3.93;;;3.60;;
297;SDS011;133;49.626;9.680;2023-12-20T07:21:38;4.83;;;4.37;;
297;SDS011;133;49.626;9.680;2023-12-20T07:24:04;10.17;;;5.70;;
297;SDS011;133;49.626;9.680;2023-12-20T07:26:30;13.60;;;9.17;;
297;SDS011;133;49.626;9.680;2023-12-20T07:28:55;13.40;;;8.00;;
297;SDS011;133;49.626;9.680;2023-12-20T07:31:21;12.10;;;6.83;;
297;SDS011;133;49.626;9.680;2023-12-20T07:33:46;6.43;;;4.13;;
297;SDS011;133;49.626;9.680;2023-12-20T07:36:12;6.70;;;5.50;;
297;SDS011;133;49.626;9.680;2023-12-20T07:38:38;6.13;;;4.37;;
297;SDS011;133;49.626;9.680;2023-12-20T07:41:03;4.07;;;3.47;;
297;SDS011;133;49.626;9.680;2023-12-20T07:43:30;4.40;;;3.37;;
297;SDS011;133;49.626;9.680;2023-12-20T07:45:55;5.57;;;3.27;;
297;SDS011;133;49.626;9.680;2023-12-20T07:48:21;3.73;;;3.10;;
297;SDS011;133;49.626;9.680;2023-12-20T07:50:47;3.13;;;2.93;;
297;SDS011;133;49.626;9.680;2023-12-20T07:53:12;3.17;;;3.00;;
297;SDS011;133;49.626;9.680;2023-12-20T07:55:38;3.20;;;3.00;;
297;SDS011;133;49.626;9.680;2023-12-20T07:58:05;3.40;;;3.30;;
297;SDS011;133;49.626;9.680;2023-12-20T08:00:31;6.60;;;3.87;;
297;SDS011;133;49.626;9.680;2023-12-20T08:02:57;4.87;;;3.30;;
297;SDS011;133;49.626;9.680;2023-12-20T08:05:22;5.03;;;3.63;;
297;SDS011;133;49.626;9.680;2023-12-20T08:07:48;6.23;;;4.50;;
297;SDS011;133;49.626;9.680;2023-12-20T08:10:13;5.07;;;4.00;;
297;SDS011;133;49.626;9.680;2023-12-20T08:12:39;6.67;;;4.77;;
297;SDS011;133;49.626;9.680;2023-12-20T08:15:05;4.70;;;3.70;;
297;SDS011;133;49.626;9.680;2023-12-20T08:17:31;9.47;;;4.10;;
297;SDS011;133;49.626;9.680;2023-12-20T08:19:58;8.33;;;4.80;;
297;SDS011;133;49.626;9.680;2023-12-20T08:22:24;5.97;;;4.70;;
297;SDS011;133;49.626;9.680;2023-12-20T08:24:50;4.77;;;3.50;;
297;SDS011;133;49.626;9.680;2023-12-20T08:27:15;4.97;;;3.40;;
297;SDS011;133;49.626;9.680;2023-12-20T08:29:43;3.90;;;3.20;;
297;SDS011;133;49.626;9.680;2023-12-20T08:32:09;4.90;;;3.20;;
297;SDS011;133;49.626;9.680;2023-12-20T08:34:35;3.10;;;2.90;;
297;SDS011;133;49.626;9.680;2023-12-20T08:37:00;4.00;;;3.10;;
297;SDS011;133;49.626;9.680;2023-12-20T08:39:26;3.30;;;2.63;;
297;SDS011;133;49.626;9.680;2023-12-20T08:41:52;9.73;;;2.80;;
297;SDS011;133;49.626;9.680;2023-12-20T08:44:19;5.00;;;3.40;;
297;SDS011;133;49.626;9.680;2023-12-20T08:46:47;8.57;;;3.93;;
297;SDS011;133;49.626;9.680;2023-12-20T08:49:14;5.70;;;2.70;;
297;SDS011;133;49.626;9.680;2023-12-20T08:51:40;12.43;;;6.00;;
297;SDS011;133;49.626;9.680;2023-12-20T08:54:06;8.50;;;3.57;;
297;SDS011;133;49.626;9.680;2023-12-20T08:56:33;3.27;;;3.00;;
297;SDS011;133;49.626;9.680;2023-12-20T08:58:59;5.60;;;3.80;;
297;SDS011;133;49.626;9.680;2023-12-20T09:01:24;5.30;;;3.67;;
297;SDS011;133;49.626;9.680;2023-12-20T09:03:50;4.70;;;3.33;;
297;SDS011;133;49.626;9.680;2023-12-20T09:06:15;3.97;;;3.37;;
297;SDS011;133;49.626;9.680;2023-12-20T09:08:41;3.60;;;3.20;;
297;SDS011;133;49.626;9.680;2023-12-20T09:11:07;3.23;;;2.80;;
297;SDS011;133;49.626;9.680;2023-12-20T09:13:32;3.67;;;2.77;;
297;SDS011;133;49.626;9.680;2023-12-20T09:15:58;5.97;;;3.33;;
297;SDS011;133;49.626;9.680;2023-12-20T09:18:24;2.97;;;2.80;;
297;SDS011;133;49.626;9.680;2023-12-20T09:20:50;17.83;;;8.07;;
297;SDS011;133;49.626;9.680;2023-12-20T09:23:15;7.43;;;5.27;;
297;SDS011;133;49.626;9.680;2023-12-20T09:25:42;8.10;;;3.53;;
297;SDS011;133;49.626;9.680;2023-12-20T09:28:08;2.90;;;2.70;;
297;SDS011;133;49.626;9.680;2023-12-20T09:30:33;7.93;;;3.00;;
297;SDS011;133;49.626;9.680;2023-12-20T09:33:00;6.30;;;4.30;;
297;SDS011;133;49.626;9.680;2023-12-20T09:35:26;5.70;;;3.10;;
297;SDS011;133;49.626;9.680;2023-12-20T09:37:51;6.67;;;2.70;;
297;SDS011;133;49.626;9.680;2023-12-20T09:40:20;3.80;;;3.13;;
297;SDS011;133;49.626;9.680;2023-12-20T09:42:48;6.10;;;2.50;;
297;SDS011;133;49.626;9.680;2023-12-20T09:45:21;5.90;;;2.80;;
297;SDS011;133;49.626;9.680;2023-12-20T09:47:49;7.10;;;2.97;;
297;SDS011;133;49.626;9.680;2023-12-20T09:50:17;4.13;;;3.40;;
297;SDS011;133;49.626;9.680;2023-12-20T09:52:44;6.87;;;3.60;;
297;SDS011;133;49.626;9.680;2023-12-20T09:55:14;5.13;;;3.20;;
297;SDS011;133;49.626;9.680;2023-12-20T09:57:42;4.30;;;2.77;;
297;SDS011;133;49.626;9.680;2023-12-20T10:00:07;7.60;;;3.13;;
297;SDS011;133;49.626;9.680;2023-12-20T10:02:34;3.10;;;2.90;;
297;SDS011;133;49.626;9.680;2023-12-20T10:05:01;3.03;;;2.83;;
297;SDS011;133;49.626;9.680;2023-12-20T10:07:28;3.40;;;2.57;;
297;SDS011;133;49.626;9.680;2023-12-20T10:09:54;4.33;;;3.00;;
297;SDS011;133;49.626;9.680;2023-12-20T10:12:21;6.70;;;3.17;;
297;SDS011;133;49.626;9.680;2023-12-20T10:14:46;7.13;;;3.50;;
297;SDS011;133;49.626;9.680;2023-12-20T10:17:12;3.10;;;2.40;;
297;SDS011;133;49.626;9.680;2023-12-20T10:19:37;3.83;;;2.70;;
297;SDS011;133;49.626;9.680;2023-12-20T10:22:06;8.87;;;3.70;;
297;SDS011;133;49.626;9.680;2023-12-20T10:24:31;3.87;;;2.90;;
297;SDS011;133;49.626;9.680;2023-12-20T10:27:03;3.10;;;2.50;;
297;SDS011;133;49.626;9.680;2023-12-20T10:29:36;2.60;;;2.40;;
297;SDS011;133;49.626;9.680;2023-12-20T10:32:24;7.83;;;3.33;;
297;SDS011;133;49.626;9.680;2023-12-20T10:34:52;4.07;;;2.60;;
297;SDS011;133;49.626;9.680;2023-12-20T10:37:18;3.90;;;2.90;;
297;SDS011;133;49.626;9.680;2023-12-20T10:39:47;10.07;;;3.10;;
297;SDS011;133;49.626;9.680;2023-12-20T10:42:16;5.50;;;2.80;;
297;SDS011;133;49.626;9.680;2023-12-20T10:44:43;2.70;;;2.50;;
297;SDS011;133;49.626;9.680;2023-12-20T10:47:09;4.87;;;2.80;;
297;SDS011;133;49.626;9.680;2023-12-20T10:49:38;9.83;;;3.20;;
297;SDS011;133;49.626;9.680;2023-12-20T10:52:05;4.10;;;3.00;;
297;SDS011;133;49.626;9.680;2023-12-20T10:54:32;4.60;;;2.63;;
297;SDS011;133;49.626;9.680;2023-12-20T10:56:58;8.10;;;2.50;;
297;SDS011;133;49.626;9.680;2023-12-20T10:59:25;5.10;;;3.30;;
297;SDS011;133;49.626;9.680;2023-12-20T11:01:54;4.20;;;3.10;;
297;SDS011;133;49.626;9.680;2023-12-20T11:04:23;3.10;;;2.90;;
297;SDS011;133;49.626;9.680;2023-12-20T11:06:57;6.60;;;2.70;;
297;SDS011;133;49.626;9.680;2023-12-20T11:09:31;3.67;;;2.67;;
297;SDS011;133;49.626;9.680;2023-12-20T11:14:43;6.07;;;2.60;;
297;SDS011;133;49.626;9.680;2023-12-20T11:17:12;4.83;;;2.73;;
297;SDS011;133;49.626;9.680;2023-12-20T11:22:26;6.40;;;3.00;;
297;SDS011;133;49.626;9.680;2023-12-20T11:24:55;7.83;;;2.70;;
297;SDS011;133;49.626;9.680;2023-12-20T11:27:24;2.90;;;2.70;;
297;SDS011;133;49.626;9.680;2023-12-20T11:29:53;3.47;;;2.70;;
297;SDS011;133;49.626;9.680;2023-12-20T11:34:59;7.80;;;3.00;;
297;SDS011;133;49.626;9.680;2023-12-20T11:37:31;3.03;;;2.43;;
297;SDS011;133;49.626;9.680;2023-12-20T11:40:06;4.67;;;2.90;;
297;SDS011;133;49.626;9.680;2023-12-20T11:42:39;4.27;;;2.77;;
297;SDS011;133;49.626;9.680;2023-12-20T11:45:05;3.60;;;2.57;;
297;SDS011;133;49.626;9.680;2023-12-20T11:47:34;3.17;;;2.60;;
297;SDS011;133;49.626;9.680;2023-12-20T11:50:00;4.40;;;2.50;;
297;SDS011;133;49.626;9.680;2023-12-20T11:52:28;4.30;;;3.00;;
297;SDS011;133;49.626;9.680;2023-12-20T11:54:54;9.90;;;3.70;;
297;SDS011;133;49.626;9.680;2023-12-20T11:57:20;4.20;;;2.27;;
297;SDS011;133;49.626;9.680;2023-12-20T11:59:45;9.70;;;2.90;;
297;SDS011;133;49.626;9.680;2023-12-20T12:02:11;3.47;;;2.50;;
297;SDS011;133;49.626;9.680;2023-12-20T12:04:37;4.13;;;3.10;;
297;SDS011;133;49.626;9.680;2023-12-20T12:07:03;3.20;;;3.00;;
297;SDS011;133;49.626;9.680;2023-12-20T12:09:29;6.37;;;2.80;;
297;SDS011;133;49.626;9.680;2023-12-20T12:11:54;2.80;;;2.63;;
297;SDS011;133;49.626;9.680;2023-12-20T12:14:20;5.20;;;3.63;;
297;SDS011;133;49.626;9.680;2023-12-20T12:16:46;5.47;;;3.00;;
297;SDS011;133;49.626;9.680;2023-12-20T12:19:29;6.30;;;3.03;;
297;SDS011;133;49.626;9.680;2023-12-20T12:24:47;5.57;;;3.50;;
297;SDS011;133;49.626;9.680;2023-12-20T12:27:14;8.80;;;3.27;;
297;SDS011;133;49.626;9.680;2023-12-20T12:29:40;6.80;;;3.47;;
297;SDS011;133;49.626;9.680;2023-12-20T12:32:24;4.80;;;3.40;;
297;SDS011;133;49.626;9.680;2023-12-20T12:34:50;6.63;;;4.30;;
297;SDS011;133;49.626;9.680;2023-12-20T12:37:16;9.10;;;4.50;;
297;SDS011;133;49.626;9.680;2023-12-20T12:39:42;12.90;;;6.90;;
297;SDS011;133;49.626;9.680;2023-12-20T12:42:07;9.57;;;4.60;;
297;SDS011;133;49.626;9.680;2023-12-20T12:44:33;8.60;;;4.47;;
297;SDS011;133;49.626;9.680;2023-12-20T12:46:58;7.63;;;3.40;;
297;SDS011;133;49.626;9.680;2023-12-20T12:49:24;6.27;;;3.50;;
297;SDS011;133;49.626;9.680;2023-12-20T12:51:50;4.07;;;3.23;;
297;SDS011;133;49.626;9.680;2023-12-20T12:54:16;5.97;;;3.43;;
297;SDS011;133;49.626;9.680;2023-12-20T12:56:43;6.30;;;4.10;;
297;SDS011;133;49.626;9.680;2023-12-20T12:59:09;9.17;;;5.30;;
297;SDS011;133;49.626;9.680;2023-12-20T13:01:34;4.83;;;4.03;;
297;SDS011;133;49.626;9.680;2023-12-20T13:04:00;10.93;;;3.10;;
297;SDS011;133;49.626;9.680;2023-12-20T13:06:28;6.10;;;3.10;;
297;SDS011;133;49.626;9.680;2023-12-20T13:08:54;6.57;;;4.20;;
297;SDS011;133;49.626;9.680;2023-12-20T13:11:20;5.97;;;3.20;;
297;SDS011;133;49.626;9.680;2023-12-20T13:13:46;3.87;;;3.20;;
297;SDS011;133;49.626;9.680;2023-12-20T13:16:12;5.50;;;2.70;;
297;SDS011;133;49.626;9.680;2023-12-20T13:18:38;5.47;;;3.20;;
297;SDS011;133;49.626;9.680;2023-12-20T13:21:07;3.67;;;2.50;;
297;SDS011;133;49.626;9.680;2023-12-20T13:23:33;4.33;;;2.80;;
297;SDS011;133;49.626;9.680;2023-12-20T13:25:58;6.47;;;3.10;;
297;SDS011;133;49.626;9.680;2023-12-20T13:28:24;3.50;;;2.60;;
297;SDS011;133;49.626;9.680;2023-12-20T13:30:49;5.53;;;2.70;;
297;SDS011;133;49.626;9.680;2023-12-20T13:33:15;5.27;;;2.67;;
297;SDS011;133;49.626;9.680;2023-12-20T13:35:41;4.37;;;2.90;;
297;SDS011;133;49.626;9.680;2023-12-20T13:38:06;3.13;;;2.73;;
297;SDS011;133;49.626;9.680;2023-12-20T13:40:33;5.33;;;3.77;;
297;SDS011;133;49.626;9.680;2023-12-20T13:42:58;5.77;;;3.30;;
297;SDS011;133;49.626;9.680;2023-12-20T13:45:24;6.70;;;3.40;;
297;SDS011;133;49.626;9.680;2023-12-20T13:47:50;7.10;;;3.70;;
297;SDS011;133;49.626;9.680;2023-12-20T13:50:16;3.50;;;3.20;;
297;SDS011;133;49.626;9.680;2023-12-20T13:52:41;6.27;;;3.80;;
297;SDS011;133;49.626;9.680;2023-12-20T13:55:07;3.93;;;3.43;;
297;SDS011;133;49.626;9.680;2023-12-20T13:57:34;5.37;;;3.00;;
297;SDS011;133;49.626;9.680;2023-12-20T14:00:02;7.03;;;3.30;;
297;SDS011;133;49.626;9.680;2023-12-20T14:02:29;4.97;;;3.43;;
297;SDS011;133;49.626;9.680;2023-12-20T14:04:55;4.70;;;3.43;;
297;SDS011;133;49.626;9.680;2023-12-20T14:07:20;5.57;;;3.00;;
297;SDS011;133;49.626;9.680;2023-12-20T14:09:46;6.53;;;3.37;;
297;SDS011;133;49.626;9.680;2023-12-20T14:12:12;5.73;;;3.10;;
297;SDS011;133;49.626;9.680;2023-12-20T14:14:38;7.13;;;3.47;;
297;SDS011;133;49.626;9.680;2023-12-20T14:17:04;4.33;;;2.80;;
297;SDS011;133;49.626;9.680;2023-12-20T14:19:31;4.17;;;2.70;;
297;SDS011;133;49.626;9.680;2023-12-20T14:21:57;3.13;;;3.00;;
297;SDS011;133;49.626;9.680;2023-12-20T14:24:26;3.93;;;3.50;;
297;SDS011;133;49.626;9.680;2023-12-20T14:26:52;6.10;;;3.30;;
297;SDS011;133;49.626;9.680;2023-12-20T14:29:18;5.50;;;3.60;;
297;SDS011;133;49.626;9.680;2023-12-20T14:31:43;5.40;;;3.67;;
297;SDS011;133;49.626;9.680;2023-12-20T14:34:09;5.80;;;3.53;;
297;SDS011;133;49.626;9.680;2023-12-20T14:36:35;5.97;;;3.70;;
297;SDS011;133;49.626;9.680;2023-12-20T14:39:00;11.43;;;4.40;;
297;SDS011;133;49.626;9.680;2023-12-20T14:41:27;7.10;;;3.87;;
297;SDS011;133;49.626;9.680;2023-12-20T14:43:53;7.00;;;4.30;;
297;SDS011;133;49.626;9.680;2023-12-20T14:46:19;7.23;;;4.00;;
297;SDS011;133;49.626;9.680;2023-12-20T14:48:45;5.40;;;4.27;;
297;SDS011;133;49.626;9.680;2023-12-20T14:51:10;8.27;;;4.37;;
297;SDS011;133;49.626;9.680;2023-12-20T14:53:36;7.00;;;3.87;;
297;SDS011;133;49.626;9.680;2023-12-20T14:56:03;8.93;;;4.40;;
297;SDS011;133;49.626;9.680;2023-12-20T14:58:29;10.10;;;4.17;;
297;SDS011;133;49.626;9.680;2023-12-20T15:00:55;6.60;;;4.00;;
297;SDS011;133;49.626;9.680;2023-12-20T15:03:23;9.50;;;3.90;;
297;SDS011;133;49.626;9.680;2023-12-20T15:05:49;5.73;;;3.50;;
297;SDS011;133;49.626;9.680;2023-12-20T15:08:15;5.00;;;3.63;;
297;SDS011;133;49.626;9.680;2023-12-20T15:10:40;5.67;;;4.30;;
297;SDS011;133;49.626;9.680;2023-12-20T15:13:06;5.37;;;3.80;;
297;SDS011;133;49.626;9.680;2023-12-20T15:15:32;10.63;;;3.57;;
297;SDS011;133;49.626;9.680;2023-12-20T15:17:58;4.70;;;3.60;;
297;SDS011;133;49.626;9.680;2023-12-20T15:20:30;4.80;;;4.50;;
297;SDS011;133;49.626;9.680;2023-12-20T15:22:58;5.97;;;3.70;;
297;SDS011;133;49.626;9.680;2023-12-20T15:25:29;4.23;;;3.57;;
297;SDS011;133;49.626;9.680;2023-12-20T15:27:55;6.67;;;3.73;;
297;SDS011;133;49.626;9.680;2023-12-20T15:30:21;8.40;;;3.70;;
297;SDS011;133;49.626;9.680;2023-12-20T15:32:49;4.10;;;3.60;;
297;SDS011;133;49.626;9.680;2023-12-20T15:35:15;9.33;;;4.70;;
297;SDS011;133;49.626;9.680;2023-12-20T15:37:40;13.63;;;4.20;;
297;SDS011;133;49.626;9.680;2023-12-20T15:40:10;9.30;;;4.33;;
297;SDS011;133;49.626;9.680;2023-12-20T15:42:36;11.43;;;3.90;;
297;SDS011;133;49.626;9.680;2023-12-20T15:45:03;7.10;;;4.27;;
297;SDS011;133;49.626;9.680;2023-12-20T15:47:29;5.07;;;3.97;;
297;SDS011;133;49.626;9.680;2023-12-20T15:49:55;9.63;;;3.90;;